createdAt,value
2022-09-01T00:00:29.197Z,2.97
2022-09-01T00:02:57.718Z,3.17
2022-09-01T00:05:26.272Z,2.30
2022-09-01T00:07:54.344Z,2.67
2022-09-01T00:10:22.721Z,2.30
2022-09-01T00:12:52.387Z,2.65
2022-09-01T00:15:20.528Z,2.58
2022-09-01T00:17:48.612Z,2.05
2022-09-01T00:20:20.299Z,2.67
2022-09-01T00:22:49.378Z,2.55
2022-09-01T00:25:20.211Z,2.40
2022-09-01T00:27:49.507Z,2.22
2022-09-01T00:30:19.316Z,2.50
2022-09-01T00:32:47.406Z,2.42
2022-09-01T00:35:17.240Z,2.63
2022-09-01T00:37:45.341Z,2.38
2022-09-01T00:40:16.128Z,2.65
2022-09-01T00:42:45.004Z,2.20
2022-09-01T00:45:13.668Z,2.25
2022-09-01T00:47:43.481Z,2.40
2022-09-01T00:50:13.577Z,2.22
2022-09-01T00:52:46.803Z,2.22
2022-09-01T00:55:18.601Z,2.10
2022-09-01T00:57:47.285Z,2.20
2022-09-01T01:00:18.721Z,2.22
2022-09-01T01:02:50.175Z,2.10
2022-09-01T01:05:18.551Z,2.15
2022-09-01T01:07:47.673Z,2.13
2022-09-01T01:10:18.838Z,2.33
2022-09-01T01:12:47.053Z,2.33
2022-09-01T01:15:17.177Z,1.92
2022-09-01T01:17:45.312Z,2.33
2022-09-01T01:20:35.474Z,2.08
2022-09-01T01:23:10.458Z,2.25
2022-09-01T01:25:43.320Z,2.20
2022-09-01T01:28:15.456Z,2.20
2022-09-01T01:30:49.111Z,2.13
2022-09-01T01:33:17.260Z,2.38
2022-09-01T01:35:45.275Z,2.35
2022-09-01T01:38:15.657Z,2.38
2022-09-01T01:40:45.310Z,2.20
2022-09-01T01:43:19.973Z,2.28
2022-09-01T01:45:49.051Z,2.22
2022-09-01T01:48:23.908Z,2.15
2022-09-01T01:50:53.679Z,2.33
2022-09-01T01:53:22.351Z,2.20
2022-09-01T01:55:53.438Z,2.53
2022-09-01T01:58:24.548Z,2.00
2022-09-01T02:00:55.237Z,2.45
2022-09-01T02:03:33.461Z,2.42
2022-09-01T02:06:07.783Z,2.40
2022-09-01T02:08:37.554Z,2.67
2022-09-01T02:11:08.733Z,2.58
2022-09-01T02:13:36.774Z,2.60
2022-09-01T02:16:12.032Z,2.33
2022-09-01T02:18:43.192Z,2.40
2022-09-01T02:21:18.157Z,2.63
2022-09-01T02:23:49.617Z,2.60
2022-09-01T02:26:21.230Z,2.65
2022-09-01T02:28:54.754Z,2.60
2022-09-01T02:31:28.829Z,2.30
2022-09-01T02:34:01.089Z,2.30
2022-09-01T02:36:32.711Z,2.58
2022-09-01T02:39:01.125Z,2.50
2022-09-01T02:41:34.353Z,2.53
2022-09-01T02:44:03.913Z,2.30
2022-09-01T02:46:32.044Z,2.40
2022-09-01T02:49:01.587Z,2.60
2022-09-01T02:51:29.616Z,2.63
2022-09-01T02:53:58.497Z,2.67
2022-09-01T02:56:27.877Z,2.40
2022-09-01T02:58:57.600Z,2.35
2022-09-01T03:01:29.532Z,2.33
2022-09-01T03:04:00.502Z,2.60
2022-09-01T03:06:30.672Z,2.40
2022-09-01T03:09:00.618Z,2.50
2022-09-01T03:11:31.796Z,2.90
2022-09-01T03:14:01.763Z,2.55
2022-09-01T03:16:31.290Z,2.40
2022-09-01T03:18:59.882Z,2.60
2022-09-01T03:21:29.511Z,2.58
2022-09-01T03:23:58.125Z,2.53
2022-09-01T03:26:26.284Z,2.63
2022-09-01T03:28:54.817Z,2.60
2022-09-01T03:31:27.490Z,2.58
2022-09-01T03:34:01.458Z,2.53
2022-09-01T03:36:33.242Z,2.47
2022-09-01T03:39:02.238Z,2.20
2022-09-01T03:41:33.095Z,2.47
2022-09-01T03:44:01.142Z,2.28
2022-09-01T03:46:36.791Z,2.72
2022-09-01T03:49:07.466Z,2.50
2022-09-01T03:51:37.960Z,2.40
2022-09-01T03:54:07.047Z,2.78
2022-09-01T03:56:35.366Z,2.50
2022-09-01T03:59:03.824Z,2.70
2022-09-01T04:01:38.023Z,2.28
2022-09-01T04:04:07.795Z,2.40
2022-09-01T04:06:37.693Z,2.53
2022-09-01T04:09:05.746Z,2.30
2022-09-01T04:11:35.092Z,3.38
2022-09-01T04:14:04.483Z,2.40
2022-09-01T04:16:54.568Z,2.40
2022-09-01T04:19:26.547Z,2.55
2022-09-01T04:22:00.583Z,2.17
2022-09-01T04:24:36.818Z,2.45
2022-09-01T04:27:07.529Z,2.70
2022-09-01T04:29:35.976Z,2.50
2022-09-01T04:32:12.680Z,2.70
2022-09-01T04:34:42.812Z,2.10
2022-09-01T04:37:18.115Z,2.90
2022-09-01T04:39:55.814Z,2.50
2022-09-01T04:42:27.120Z,2.60
2022-09-01T04:44:56.622Z,2.55
2022-09-01T04:47:36.150Z,2.50
2022-09-01T04:50:13.805Z,2.20
2022-09-01T04:52:45.123Z,2.42
2022-09-01T04:55:24.724Z,2.40
2022-09-01T04:57:53.117Z,2.38
2022-09-01T05:00:25.973Z,2.65
2022-09-01T05:03:04.422Z,2.60
2022-09-01T05:05:54.038Z,2.25
2022-09-01T05:08:24.590Z,2.67
2022-09-01T05:10:56.722Z,2.83
2022-09-01T05:13:46.437Z,2.60
2022-09-01T05:16:24.098Z,2.60
2022-09-01T05:18:56.984Z,2.40
2022-09-01T05:21:28.246Z,2.75
2022-09-01T05:23:58.449Z,2.70
2022-09-01T05:26:28.927Z,2.42
2022-09-01T05:28:59.025Z,2.53
2022-09-01T05:31:34.713Z,2.50
2022-09-01T05:34:05.271Z,2.30
2022-09-01T05:36:33.858Z,2.65
2022-09-01T05:39:04.759Z,2.58
2022-09-01T05:41:34.504Z,2.50
2022-09-01T05:44:08.053Z,2.53
2022-09-01T05:46:39.445Z,2.50
2022-09-01T05:49:16.202Z,2.40
2022-09-01T05:51:50.757Z,2.50
2022-09-01T05:54:23.000Z,2.08
2022-09-01T05:56:53.472Z,2.03
2022-09-01T05:59:26.061Z,2.17
2022-09-01T06:02:09.120Z,2.20
2022-09-01T06:05:03.823Z,2.00
2022-09-01T06:07:43.051Z,2.50
2022-09-01T06:10:14.773Z,2.40
2022-09-01T06:12:45.646Z,3.10
2022-09-01T06:15:20.811Z,2.45
2022-09-01T06:17:52.630Z,2.25
2022-09-01T06:20:22.958Z,2.17
2022-09-01T06:22:52.535Z,2.20
2022-09-01T06:25:21.969Z,2.30
2022-09-01T06:27:52.370Z,2.20
2022-09-01T06:30:24.375Z,1.90
2022-09-01T06:33:09.263Z,1.95
2022-09-01T06:35:39.067Z,2.00
2022-09-01T06:38:07.943Z,2.03
2022-09-01T06:40:45.334Z,1.88
2022-09-01T06:43:17.412Z,2.10
2022-09-01T06:45:54.735Z,1.92
2022-09-01T06:48:27.482Z,2.22
2022-09-01T06:51:16.117Z,2.25
2022-09-01T06:53:56.366Z,2.10
2022-09-01T06:56:31.959Z,2.10
2022-09-01T06:59:05.583Z,2.05
2022-09-01T07:01:35.825Z,2.28
2022-09-01T07:04:04.747Z,1.80
2022-09-01T07:10:06.025Z,2.40
2022-09-01T07:13:05.460Z,2.92
2022-09-01T07:18:26.841Z,2.00
2022-09-01T07:24:06.040Z,1.85
2022-09-01T07:26:36.637Z,1.90
2022-09-01T07:29:13.871Z,1.73
2022-09-01T07:32:43.746Z,1.67
2022-09-01T07:34:40.372Z,1.92
2022-09-01T07:45:58.918Z,1.77
2022-09-01T07:49:01.310Z,2.00
2022-09-01T07:51:37.138Z,2.40
2022-09-01T07:54:07.508Z,1.88
2022-09-01T07:56:40.152Z,1.90
2022-09-01T07:59:15.005Z,2.10
2022-09-01T08:01:51.273Z,1.63
2022-09-01T08:04:22.873Z,2.15
2022-09-01T08:06:51.709Z,2.22
2022-09-01T08:09:35.121Z,1.90
2022-09-01T08:12:09.174Z,1.80
2022-09-01T08:15:12.753Z,1.85
2022-09-01T08:17:57.062Z,1.90
2022-09-01T08:20:27.243Z,2.10
2022-09-01T08:23:12.428Z,1.90
2022-09-01T08:25:42.063Z,1.90
2022-09-01T08:28:12.650Z,2.03
2022-09-01T08:30:52.061Z,1.60
2022-09-01T08:33:21.745Z,2.22
2022-09-01T08:35:50.608Z,1.90
2022-09-01T08:38:20.961Z,2.10
2022-09-01T08:40:56.415Z,1.95
2022-09-01T08:43:38.625Z,1.70
2022-09-01T08:46:14.115Z,2.00
2022-09-01T08:52:01.363Z,2.05
2022-09-01T08:54:36.583Z,2.08
2022-09-01T08:57:09.823Z,1.90
2022-09-01T08:59:58.469Z,1.95
2022-09-01T09:02:47.855Z,1.90
2022-09-01T09:05:31.991Z,2.25
2022-09-01T09:08:29.675Z,2.10
2022-09-01T09:11:04.760Z,2.40
2022-09-01T09:13:43.341Z,1.92
2022-09-01T09:16:18.581Z,2.10
2022-09-01T09:18:58.511Z,1.77
2022-09-01T09:21:30.727Z,1.80
2022-09-01T09:24:07.899Z,1.70
2022-09-01T09:26:43.376Z,1.80
2022-09-01T09:29:11.526Z,1.88
2022-09-01T09:31:46.082Z,1.95
2022-09-01T09:34:30.094Z,2.00
2022-09-01T09:36:58.161Z,1.95
2022-09-01T09:39:26.747Z,1.70
2022-09-01T09:42:08.981Z,2.05
2022-09-01T09:44:44.119Z,1.90
2022-09-01T09:47:46.263Z,1.95
2022-09-01T09:50:20.916Z,2.25
2022-09-01T09:52:50.201Z,1.67
2022-09-01T09:55:28.221Z,2.13
2022-09-01T09:57:59.740Z,1.70
2022-09-01T10:00:30.064Z,2.15
2022-09-01T10:03:07.782Z,1.98
2022-09-01T10:05:43.286Z,1.92
2022-09-01T10:08:14.916Z,2.00
2022-09-01T10:10:45.709Z,2.08
2022-09-01T10:13:29.054Z,2.17
2022-09-01T10:16:03.779Z,1.92
2022-09-01T10:18:40.571Z,1.80
2022-09-01T10:21:13.086Z,1.95
2022-09-01T10:23:41.913Z,1.77
2022-09-01T10:26:16.283Z,2.00
2022-09-01T10:28:53.071Z,1.63
2022-09-01T10:31:22.534Z,1.95
2022-09-01T10:33:52.368Z,2.03
2022-09-01T10:36:24.397Z,2.00
2022-09-01T10:38:58.781Z,2.10
2022-09-01T10:41:53.281Z,1.90
2022-09-01T10:44:34.058Z,1.92
2022-09-01T10:47:13.798Z,1.88
2022-09-01T10:50:01.493Z,2.10
2022-09-01T10:52:59.151Z,1.90
2022-09-01T10:55:35.055Z,2.20
2022-09-01T11:01:21.702Z,1.88
2022-09-01T11:04:02.827Z,1.75
2022-09-01T11:07:12.296Z,1.80
2022-09-01T11:09:43.179Z,1.70
2022-09-01T11:12:37.537Z,2.05
2022-09-01T11:15:07.815Z,1.98
2022-09-01T11:17:38.790Z,1.80
2022-09-01T11:20:10.462Z,1.80
2022-09-01T11:22:41.835Z,1.85
2022-09-01T11:25:40.810Z,1.83
2022-09-01T11:28:42.943Z,1.70
2022-09-01T11:31:26.174Z,2.17
2022-09-01T11:34:12.965Z,1.88
2022-09-01T11:36:55.927Z,1.67
2022-09-01T11:39:40.440Z,2.00
2022-09-01T11:42:13.904Z,2.10
2022-09-01T11:44:48.869Z,2.30
2022-09-01T11:47:20.094Z,2.10
2022-09-01T11:49:52.975Z,2.00
2022-09-01T11:52:23.500Z,2.13
2022-09-01T11:54:54.229Z,2.10
2022-09-01T11:57:34.108Z,2.20
2022-09-01T12:00:05.245Z,1.90
2022-09-01T12:02:45.689Z,2.35
2022-09-01T12:05:29.827Z,2.05
2022-09-01T12:07:58.656Z,2.08
2022-09-01T12:10:34.452Z,2.00
2022-09-01T12:13:07.641Z,2.25
2022-09-01T12:15:43.418Z,2.13
2022-09-01T12:18:27.857Z,2.13
2022-09-01T12:20:58.144Z,1.88
2022-09-01T12:23:28.373Z,2.20
2022-09-01T12:26:00.433Z,2.20
2022-09-01T12:28:31.863Z,2.28
2022-09-01T12:31:02.543Z,1.85
2022-09-01T12:33:36.625Z,2.25
2022-09-01T12:36:23.751Z,2.20
2022-09-01T12:38:52.371Z,2.15
2022-09-01T12:41:42.834Z,2.17
2022-09-01T12:44:46.822Z,2.10
2022-09-01T12:47:35.818Z,2.35
2022-09-01T12:50:06.293Z,2.33
2022-09-01T12:52:35.971Z,2.05
2022-09-01T12:58:08.763Z,2.00
2022-09-01T13:00:54.448Z,2.20
2022-09-01T13:03:23.436Z,2.10
2022-09-01T13:05:54.271Z,2.30
2022-09-01T13:08:27.022Z,1.70
2022-09-01T13:10:57.474Z,2.20
2022-09-01T13:13:28.589Z,2.17
2022-09-01T13:16:01.474Z,2.03
2022-09-01T13:18:30.691Z,2.20
2022-09-01T13:20:59.636Z,2.50
2022-09-01T13:23:27.751Z,2.10
2022-09-01T13:25:55.782Z,2.20
2022-09-01T13:36:48.141Z,1.83
2022-09-01T13:39:20.465Z,2.10
2022-09-01T13:41:48.604Z,1.98
2022-09-01T13:44:18.365Z,2.30
2022-09-01T13:50:05.096Z,1.90
2022-09-01T13:52:24.504Z,2.08
2022-09-01T13:54:52.517Z,2.17
2022-09-01T13:57:20.528Z,2.53
2022-09-01T13:59:48.549Z,2.00
2022-09-01T14:02:18.159Z,1.95
2022-09-01T14:04:47.262Z,2.25
2022-09-01T14:07:16.054Z,2.10
2022-09-01T14:09:44.099Z,2.05
2022-09-01T14:12:12.431Z,2.22
2022-09-01T14:17:29.930Z,2.10
2022-09-01T14:19:58.269Z,2.08
2022-09-01T14:22:26.298Z,1.77
2022-09-01T14:24:54.360Z,2.28
2022-09-01T14:27:22.562Z,2.30
2022-09-01T14:29:54.751Z,2.50
2022-09-01T14:32:26.970Z,2.40
2022-09-01T14:34:57.454Z,2.10
2022-09-01T14:37:25.490Z,2.00
2022-09-01T14:39:54.471Z,1.90
2022-09-01T14:42:25.691Z,2.47
2022-09-01T14:44:53.727Z,2.00
2022-09-01T14:47:25.514Z,2.17
2022-09-01T14:49:54.430Z,2.20
2022-09-01T14:52:23.900Z,2.25
2022-09-01T14:54:51.916Z,2.00
2022-09-01T14:57:37.554Z,1.77
2022-09-01T15:00:10.156Z,2.40
2022-09-01T15:02:39.169Z,2.20
2022-09-01T15:05:08.234Z,2.10
2022-09-01T15:07:38.149Z,2.30
2022-09-01T15:10:08.303Z,2.17
2022-09-01T15:12:38.899Z,1.92
2022-09-01T15:15:09.045Z,2.10
2022-09-01T15:17:37.629Z,1.90
2022-09-01T15:20:20.783Z,2.10
2022-09-01T15:22:51.603Z,2.00
2022-09-01T15:25:19.939Z,2.38
2022-09-01T15:27:48.316Z,1.88
2022-09-01T15:30:17.196Z,2.20
2022-09-01T15:32:46.573Z,2.13
2022-09-01T15:35:16.345Z,2.08
2022-09-01T15:37:46.483Z,2.38
2022-09-01T15:40:16.440Z,1.90
2022-09-01T15:42:44.658Z,2.20
2022-09-01T15:45:16.260Z,2.45
2022-09-01T15:47:45.782Z,2.10
2022-09-01T15:50:21.900Z,1.80
2022-09-01T15:52:52.772Z,2.20
2022-09-01T15:55:24.283Z,2.22
2022-09-01T15:57:54.966Z,2.47
2022-09-01T16:00:25.923Z,2.22
2022-09-01T16:02:56.373Z,2.35
2022-09-01T16:05:25.046Z,2.00
2022-09-01T16:07:54.056Z,1.98
2022-09-01T16:10:24.423Z,2.13
2022-09-01T16:12:52.715Z,2.10
2022-09-01T16:15:23.699Z,1.92
2022-09-01T16:18:10.867Z,2.10
2022-09-01T16:20:56.594Z,1.88
2022-09-01T16:23:26.224Z,2.17
2022-09-01T16:25:56.347Z,2.20
2022-09-01T16:28:29.712Z,2.08
2022-09-01T16:31:03.967Z,2.30
2022-09-01T16:33:33.941Z,2.35
2022-09-01T16:36:17.698Z,2.13
2022-09-01T16:38:50.957Z,2.05
2022-09-01T16:41:43.062Z,2.10
2022-09-01T16:44:20.362Z,2.38
2022-09-01T16:47:01.438Z,2.15
2022-09-01T16:49:36.459Z,2.30
2022-09-01T16:52:14.585Z,2.28
2022-09-01T16:54:58.797Z,2.15
2022-09-01T16:57:39.596Z,2.35
2022-09-01T17:00:12.905Z,2.30
2022-09-01T17:02:50.111Z,1.90
2022-09-01T17:05:23.970Z,2.20
2022-09-01T17:07:56.191Z,2.50
2022-09-01T17:10:34.461Z,2.40
2022-09-01T17:13:17.254Z,2.40
2022-09-01T17:15:50.063Z,2.33
2022-09-01T17:18:25.883Z,2.25
2022-09-01T17:20:57.972Z,2.20
2022-09-01T17:23:30.561Z,2.28
2022-09-01T17:26:03.504Z,2.30
2022-09-01T17:28:37.133Z,1.98
2022-09-01T17:31:14.681Z,2.03
2022-09-01T17:33:58.588Z,2.00
2022-09-01T17:36:46.119Z,2.60
2022-09-01T17:39:22.886Z,2.47
2022-09-01T17:41:55.836Z,2.10
2022-09-01T17:44:35.502Z,2.25
2022-09-01T17:47:11.886Z,2.10
2022-09-01T17:49:48.688Z,2.42
2022-09-01T17:52:24.868Z,2.38
2022-09-01T17:54:59.346Z,2.15
2022-09-01T17:57:33.084Z,2.25
2022-09-01T18:00:07.141Z,2.25
2022-09-01T18:03:02.443Z,2.38
2022-09-01T18:05:39.558Z,2.13
2022-09-01T18:08:28.083Z,2.40
2022-09-01T18:11:02.428Z,6.70
2022-09-01T18:13:52.462Z,5.93
2022-09-01T18:16:26.992Z,4.78
2022-09-01T18:18:58.249Z,3.67
2022-09-01T18:21:31.699Z,2.83
2022-09-01T18:24:08.932Z,2.88
2022-09-01T18:26:41.043Z,2.78
2022-09-01T18:29:10.890Z,2.60
2022-09-01T18:32:12.170Z,2.30
2022-09-01T18:34:54.809Z,2.40
2022-09-01T18:37:30.021Z,2.30
2022-09-01T18:40:06.038Z,2.28
2022-09-01T18:42:41.328Z,2.20
2022-09-01T18:45:18.755Z,2.50
2022-09-01T18:47:55.750Z,2.63
2022-09-01T18:50:30.753Z,2.35
2022-09-01T18:53:11.354Z,2.33
2022-09-01T18:55:47.510Z,2.42
2022-09-01T18:58:32.490Z,2.55
2022-09-01T19:01:07.027Z,2.80
2022-09-01T19:03:42.566Z,2.10
2022-09-01T19:06:23.191Z,2.50
2022-09-01T19:08:59.665Z,2.45
2022-09-01T19:11:40.441Z,2.30
2022-09-01T19:14:17.684Z,2.55
2022-09-01T19:17:10.668Z,2.30
2022-09-01T19:19:45.183Z,2.80
2022-09-01T19:22:18.183Z,2.85
2022-09-01T19:24:50.270Z,2.67
2022-09-01T19:27:25.171Z,2.80
2022-09-01T19:29:56.527Z,2.60
2022-09-01T19:32:28.482Z,2.80
2022-09-01T19:35:00.257Z,3.25
2022-09-01T19:37:28.340Z,2.65
2022-09-01T19:39:56.365Z,3.13
2022-09-01T19:42:28.716Z,2.78
2022-09-01T19:45:07.047Z,2.78
2022-09-01T19:47:40.269Z,2.53
2022-09-01T19:50:17.590Z,2.90
2022-09-01T19:52:54.998Z,2.85
2022-09-01T19:55:31.638Z,3.25
2022-09-01T19:58:05.637Z,3.03
2022-09-01T20:00:50.784Z,2.97
2022-09-01T20:03:23.136Z,2.97
2022-09-01T20:05:57.466Z,3.15
2022-09-01T20:08:31.034Z,3.28
2022-09-01T20:11:03.123Z,3.30
2022-09-01T20:13:56.890Z,3.60
2022-09-01T20:16:31.031Z,3.55
2022-09-01T20:19:04.438Z,3.28
2022-09-01T20:21:40.013Z,2.88
2022-09-01T20:24:15.031Z,3.30
2022-09-01T20:26:47.591Z,3.05
2022-09-01T20:29:22.342Z,3.58
2022-09-01T20:31:53.723Z,3.08
2022-09-01T20:34:30.201Z,3.25
2022-09-01T20:37:07.031Z,2.97
2022-09-01T20:39:57.973Z,3.13
2022-09-01T20:42:35.610Z,3.35
2022-09-01T20:45:11.023Z,3.33
2022-09-01T20:47:39.068Z,2.97
2022-09-01T20:50:11.728Z,2.65
2022-09-01T20:52:54.605Z,2.80
2022-09-01T20:55:27.608Z,2.50
2022-09-01T20:58:04.174Z,2.50
2022-09-01T21:00:35.614Z,2.28
2022-09-01T21:03:11.952Z,2.80
2022-09-01T21:05:49.475Z,2.67
2022-09-01T21:08:37.034Z,2.45
2022-09-01T21:11:20.199Z,2.63
2022-09-01T21:13:57.407Z,2.33
2022-09-01T21:16:34.669Z,2.50
2022-09-01T21:19:09.917Z,2.65
2022-09-01T21:21:44.955Z,2.25
2022-09-01T21:24:14.577Z,2.50
2022-09-01T21:26:45.069Z,2.38
2022-09-01T21:29:28.778Z,2.88
2022-09-01T21:31:57.553Z,2.20
2022-09-01T21:34:25.694Z,2.40
2022-09-01T21:36:55.372Z,2.10
2022-09-01T21:39:24.976Z,2.05
2022-09-01T21:41:53.097Z,2.22
2022-09-01T21:44:22.305Z,2.33
2022-09-01T21:46:50.903Z,2.60
2022-09-01T21:49:18.946Z,2.40
2022-09-01T21:51:47.479Z,2.22
2022-09-01T21:54:15.618Z,2.40
2022-09-01T21:56:44.981Z,2.40
2022-09-01T21:59:16.970Z,2.70
2022-09-01T22:01:45.223Z,3.03
2022-09-01T22:04:13.665Z,2.45
2022-09-01T22:06:42.033Z,2.40
2022-09-01T22:09:21.101Z,2.35
2022-09-01T22:11:52.456Z,2.70
2022-09-01T22:14:21.649Z,2.88
2022-09-01T22:16:50.634Z,2.35
2022-09-01T22:19:20.149Z,2.67
2022-09-01T22:21:48.508Z,2.60
2022-09-01T22:24:19.113Z,2.60
2022-09-01T22:26:48.076Z,2.65
2022-09-01T22:29:18.366Z,3.00
2022-09-01T22:31:46.472Z,3.08
2022-09-01T22:34:14.542Z,2.55
2022-09-01T22:36:44.863Z,2.90
2022-09-01T22:39:13.730Z,2.97
2022-09-01T22:41:42.784Z,2.85
2022-09-01T22:44:12.141Z,2.83
2022-09-01T22:46:41.860Z,2.90
2022-09-01T22:49:10.737Z,2.75
2022-09-01T22:51:40.766Z,2.40
2022-09-01T22:54:09.788Z,2.70
2022-09-01T22:56:40.389Z,2.50
2022-09-01T22:59:10.650Z,2.47
2022-09-01T23:01:42.476Z,2.42
2022-09-01T23:04:12.819Z,2.35
2022-09-01T23:06:43.689Z,2.40
2022-09-01T23:09:12.566Z,2.55
2022-09-01T23:11:40.584Z,2.60
2022-09-01T23:14:08.579Z,2.75
2022-09-01T23:16:36.718Z,2.45
2022-09-01T23:19:06.812Z,2.45
2022-09-01T23:21:36.882Z,2.72
2022-09-01T23:24:05.402Z,2.60
2022-09-01T23:26:34.754Z,2.83
2022-09-01T23:29:03.424Z,2.42
2022-09-01T23:31:37.581Z,2.72
2022-09-01T23:34:08.396Z,2.63
2022-09-01T23:36:37.399Z,2.55
2022-09-01T23:39:06.536Z,2.47
2022-09-01T23:41:37.648Z,2.50
2022-09-01T23:44:09.359Z,2.53
2022-09-01T23:46:39.989Z,1.90
2022-09-01T23:49:10.063Z,2.88
2022-09-01T23:51:38.860Z,2.45
2022-09-01T23:54:07.967Z,2.17
2022-09-01T23:56:36.059Z,1.88
2022-09-01T23:59:04.775Z,2.05
